createdAt,value
2022-11-21T00:02:35.155Z,0.70
2022-11-21T00:05:04.429Z,0.80
2022-11-21T00:07:43.546Z,0.60
2022-11-21T00:10:26.641Z,-0.10
2022-11-21T00:12:55.274Z,0.40
2022-11-21T00:15:24.777Z,-0.10
2022-11-21T00:17:53.660Z,0.60
2022-11-21T00:20:25.364Z,0.80
2022-11-21T00:23:04.774Z,0.80
2022-11-21T00:25:36.450Z,0.60
2022-11-21T00:28:22.913Z,0.30
2022-11-21T00:31:02.875Z,0.70
2022-11-21T00:33:33.441Z,0.10
2022-11-21T00:36:06.496Z,1.50
2022-11-21T00:38:35.546Z,0.00
2022-11-21T00:41:07.477Z,0.00
2022-11-21T00:43:36.735Z,0.20
2022-11-21T00:46:04.325Z,0.30
2022-11-21T00:48:33.821Z,1.00
2022-11-21T00:51:00.920Z,0.70
2022-11-21T00:53:28.063Z,-0.10
2022-11-21T00:55:57.746Z,-0.10
2022-11-21T00:58:24.533Z,-0.10
2022-11-21T01:00:51.426Z,-0.10
2022-11-21T01:03:20.340Z,-0.10
2022-11-21T01:05:47.053Z,-0.10
2022-11-21T01:08:18.963Z,-0.10
2022-11-21T01:10:45.714Z,-0.10
2022-11-21T01:13:14.564Z,-0.10
2022-11-21T01:15:43.527Z,-0.10
2022-11-21T01:18:10.546Z,-0.10
2022-11-21T01:20:40.458Z,-0.10
2022-11-21T01:23:07.196Z,0.00
2022-11-21T01:25:36.400Z,0.00
2022-11-21T01:28:06.166Z,0.00
2022-11-21T01:30:32.935Z,0.10
2022-11-21T01:33:01.807Z,0.10
2022-11-21T01:35:31.205Z,0.00
2022-11-21T01:37:57.894Z,0.00
2022-11-21T01:40:24.627Z,0.00
2022-11-21T01:43:02.976Z,0.00
2022-11-21T01:45:59.111Z,0.00
2022-11-21T01:48:36.083Z,0.00
2022-11-21T01:51:27.544Z,0.00
2022-11-21T01:54:01.490Z,0.00
2022-11-21T01:56:32.273Z,0.00
2022-11-21T01:58:59.862Z,0.00
2022-11-21T02:01:27.112Z,0.00
2022-11-21T02:03:55.953Z,-0.10
2022-11-21T02:06:22.677Z,-0.10
2022-11-21T02:08:49.498Z,-0.20
2022-11-21T02:11:18.734Z,-0.20
2022-11-21T02:13:45.427Z,0.40
2022-11-21T02:16:14.706Z,-0.10
2022-11-21T02:18:41.380Z,-0.20
2022-11-21T02:21:25.885Z,-0.20
2022-11-21T02:23:56.326Z,-0.30
2022-11-21T02:26:25.913Z,-0.30
2022-11-21T02:28:52.653Z,-0.30
2022-11-21T02:31:19.334Z,-0.20
2022-11-21T02:33:46.073Z,-0.20
2022-11-21T02:36:37.700Z,0.30
2022-11-21T02:39:06.284Z,-0.30
2022-11-21T02:41:32.972Z,-0.30
2022-11-21T02:44:02.647Z,-0.30
2022-11-21T02:46:29.632Z,-0.30
2022-11-21T02:49:01.215Z,-0.30
2022-11-21T02:51:30.189Z,-0.30
2022-11-21T02:53:56.969Z,-0.30
2022-11-21T02:56:23.938Z,-0.30
2022-11-21T02:58:51.139Z,-0.30
2022-11-21T03:01:17.967Z,-0.30
2022-11-21T03:03:47.044Z,-0.30
2022-11-21T03:06:13.739Z,-0.30
2022-11-21T03:08:42.756Z,-0.30
2022-11-21T03:11:09.497Z,-0.20
2022-11-21T03:13:36.266Z,-0.30
2022-11-21T03:16:03.046Z,-0.30
2022-11-21T03:18:29.783Z,-0.30
2022-11-21T03:20:57.719Z,-0.40
2022-11-21T03:23:24.518Z,-0.40
2022-11-21T03:25:51.215Z,-0.40
2022-11-21T03:28:17.922Z,-0.50
2022-11-21T03:30:45.082Z,-0.50
2022-11-21T03:33:11.799Z,-0.50
2022-11-21T03:35:40.566Z,-0.50
2022-11-21T03:38:07.384Z,-0.20
2022-11-21T03:40:34.096Z,-0.40
2022-11-21T03:43:06.484Z,-0.30
2022-11-21T03:45:37.871Z,-0.40
2022-11-21T03:48:04.807Z,-0.40
2022-11-21T03:50:34.213Z,-0.50
2022-11-21T03:53:05.612Z,-0.50
2022-11-21T03:55:32.329Z,-0.50
2022-11-21T03:57:59.191Z,-0.50
2022-11-21T04:00:28.615Z,-0.50
2022-11-21T04:02:55.548Z,-0.50
2022-11-21T04:05:24.487Z,-0.60
2022-11-21T04:07:51.327Z,-0.60
2022-11-21T04:10:18.127Z,0.90
2022-11-21T04:12:47.219Z,-0.60
2022-11-21T04:15:14.244Z,-0.60
2022-11-21T04:17:45.685Z,-0.50
2022-11-21T04:20:12.594Z,-0.50
2022-11-21T04:22:39.277Z,-0.50
2022-11-21T04:25:07.046Z,-0.50
2022-11-21T04:27:33.811Z,-0.50
2022-11-21T04:30:00.570Z,-0.50
2022-11-21T04:32:27.258Z,-0.40
2022-11-21T04:34:54.005Z,-0.40
2022-11-21T04:37:21.153Z,-0.40
2022-11-21T04:39:47.942Z,-0.50
2022-11-21T04:42:15.191Z,-0.50
2022-11-21T04:44:41.966Z,-0.50
2022-11-21T04:47:11.194Z,-0.50
2022-11-21T04:49:42.626Z,-0.50
2022-11-21T04:52:09.344Z,-0.50
2022-11-21T04:54:38.368Z,-0.50
2022-11-21T04:57:07.310Z,-0.50
2022-11-21T04:59:34.002Z,-0.50
2022-11-21T05:02:02.166Z,-0.50
2022-11-21T05:04:29.016Z,-0.50
2022-11-21T05:06:55.887Z,-0.70
2022-11-21T05:09:24.735Z,-0.70
2022-11-21T05:12:09.941Z,-0.80
2022-11-21T05:14:39.151Z,-0.80
2022-11-21T05:17:05.826Z,-0.90
2022-11-21T05:19:32.565Z,-0.90
2022-11-21T05:21:59.303Z,-0.80
2022-11-21T05:24:30.964Z,-0.90
2022-11-21T05:26:57.762Z,-0.90
2022-11-21T05:29:28.101Z,-0.80
2022-11-21T05:31:55.185Z,-0.80
2022-11-21T05:34:21.925Z,-0.80
2022-11-21T05:36:50.924Z,-0.80
2022-11-21T05:39:17.617Z,-0.70
2022-11-21T05:41:44.347Z,-0.80
2022-11-21T05:44:11.101Z,-0.80
2022-11-21T05:46:37.874Z,-0.90
2022-11-21T05:49:04.663Z,0.80
2022-11-21T05:51:31.408Z,-0.40
2022-11-21T05:53:59.050Z,-1.00
2022-11-21T05:56:28.116Z,-0.90
2022-11-21T05:58:55.586Z,-0.90
2022-11-21T06:01:40.872Z,-0.90
2022-11-21T06:04:08.314Z,-0.90
2022-11-21T06:06:35.224Z,-0.90
2022-11-21T06:09:04.557Z,-0.90
2022-11-21T06:11:33.621Z,0.50
2022-11-21T06:14:00.333Z,-0.90
2022-11-21T06:16:27.234Z,-0.90
2022-11-21T06:18:58.716Z,-0.90
2022-11-21T06:21:27.022Z,0.80
2022-11-21T06:23:55.007Z,-0.90
2022-11-21T06:26:24.786Z,-0.90
2022-11-21T06:28:51.596Z,-0.90
2022-11-21T06:31:19.275Z,1.20
2022-11-21T06:33:48.352Z,-0.90
2022-11-21T06:36:18.731Z,-0.90
2022-11-21T06:38:45.669Z,-0.90
2022-11-21T06:41:13.310Z,-1.00
2022-11-21T06:43:40.676Z,-0.90
2022-11-21T06:46:07.406Z,-0.40
2022-11-21T06:48:37.441Z,-0.90
2022-11-21T06:51:05.483Z,-0.90
2022-11-21T06:53:34.794Z,-1.00
2022-11-21T06:56:02.074Z,-0.90
2022-11-21T06:58:29.298Z,-0.90
2022-11-21T07:01:03.103Z,-1.00
2022-11-21T07:03:29.835Z,-0.90
2022-11-21T07:06:00.741Z,-0.90
2022-11-21T07:08:28.518Z,-0.90
2022-11-21T07:11:24.063Z,-0.90
2022-11-21T07:13:48.021Z,-0.80
2022-11-21T07:16:14.717Z,-0.80
2022-11-21T07:18:42.317Z,-0.80
2022-11-21T07:21:09.332Z,-0.80
2022-11-21T07:23:36.069Z,-0.70
2022-11-21T07:26:06.746Z,-0.10
2022-11-21T07:28:33.724Z,-0.70
2022-11-21T07:31:01.101Z,-0.70
2022-11-21T07:33:30.253Z,-0.70
2022-11-21T07:36:02.220Z,-0.60
2022-11-21T07:38:31.404Z,-0.50
2022-11-21T07:41:03.130Z,-0.40
2022-11-21T07:43:29.844Z,-0.40
2022-11-21T07:45:56.688Z,-0.50
2022-11-21T07:48:23.428Z,1.00
2022-11-21T07:50:50.171Z,-0.40
2022-11-21T07:53:16.950Z,-0.30
2022-11-21T07:55:46.353Z,0.20
2022-11-21T07:58:14.696Z,-0.30
2022-11-21T08:00:43.062Z,-0.20
2022-11-21T08:03:14.682Z,-0.10
2022-11-21T08:05:42.585Z,-0.10
2022-11-21T08:08:12.400Z,-0.10
2022-11-21T08:10:42.437Z,0.00
2022-11-21T08:13:09.258Z,0.70
2022-11-21T08:15:36.301Z,0.10
2022-11-21T08:18:17.215Z,0.10
2022-11-21T08:20:43.950Z,0.20
2022-11-21T08:23:11.315Z,0.20
2022-11-21T08:25:41.090Z,1.80
2022-11-21T08:28:13.148Z,0.20
2022-11-21T08:30:40.113Z,0.20
2022-11-21T08:33:06.983Z,0.30
2022-11-21T08:35:38.088Z,0.30
2022-11-21T08:38:05.054Z,0.30
2022-11-21T08:40:31.806Z,0.30
2022-11-21T08:50:42.693Z,0.30
2022-11-21T08:53:13.940Z,0.50
2022-11-21T09:03:35.326Z,-0.10
2022-11-21T09:06:02.076Z,1.40
2022-11-21T09:08:29.524Z,0.70
2022-11-21T09:10:56.336Z,0.70
2022-11-21T09:13:23.564Z,0.80
2022-11-21T09:16:08.994Z,0.80
2022-11-21T09:18:43.411Z,0.80
2022-11-21T09:21:17.066Z,0.90
2022-11-21T09:23:46.998Z,0.90
2022-11-21T09:26:13.895Z,0.90
2022-11-21T09:28:43.361Z,0.90
2022-11-21T09:31:12.597Z,1.00
2022-11-21T09:33:41.919Z,1.00
2022-11-21T09:36:16.014Z,1.10
2022-11-21T09:38:42.734Z,1.00
2022-11-21T09:41:43.764Z,1.10
2022-11-21T09:44:58.346Z,1.10
2022-11-21T09:47:32.275Z,1.20
2022-11-21T09:50:16.708Z,1.20
2022-11-21T09:52:51.633Z,1.20
2022-11-21T09:55:43.516Z,1.20
2022-11-21T10:02:23.670Z,1.30
2022-11-21T10:04:55.493Z,2.80
2022-11-21T10:07:27.228Z,2.50
2022-11-21T10:09:54.058Z,2.20
2022-11-21T10:13:12.363Z,1.20
2022-11-21T10:15:47.155Z,1.10
2022-11-21T10:23:01.051Z,1.10
2022-11-21T10:42:19.116Z,1.90
2022-11-21T10:44:59.437Z,0.20
2022-11-21T11:02:40.825Z,2.80
2022-11-21T11:06:05.723Z,3.20
2022-11-21T11:08:49.433Z,0.80
2022-11-21T11:12:02.929Z,3.50
2022-11-21T11:14:58.431Z,2.80
2022-11-21T11:17:32.935Z,1.90
2022-11-21T11:27:30.906Z,2.00
2022-11-21T11:38:06.094Z,2.70
2022-11-21T11:41:38.414Z,1.90
2022-11-21T11:44:28.390Z,2.40
2022-11-21T11:50:46.929Z,2.60
2022-11-21T11:53:25.766Z,2.60
2022-11-21T11:55:55.298Z,2.70
2022-11-21T11:58:36.978Z,2.70
2022-11-21T12:01:13.525Z,2.70
2022-11-21T12:03:52.038Z,2.80
2022-11-21T12:06:22.118Z,2.80
2022-11-21T12:08:58.188Z,2.80
2022-11-21T12:12:00.543Z,2.90
2022-11-21T12:14:50.280Z,3.00
2022-11-21T12:17:24.242Z,3.00
2022-11-21T12:19:53.485Z,4.20
2022-11-21T12:22:20.243Z,3.10
2022-11-21T12:24:48.106Z,3.10
2022-11-21T12:27:33.018Z,3.20
2022-11-21T12:30:05.728Z,3.20
2022-11-21T12:32:44.587Z,3.20
2022-11-21T12:35:25.055Z,2.90
2022-11-21T12:38:12.786Z,3.20
2022-11-21T12:40:48.324Z,3.30
2022-11-21T12:43:43.270Z,3.00
2022-11-21T12:46:28.435Z,3.30
2022-11-21T12:49:26.877Z,3.30
2022-11-21T12:52:18.033Z,3.30
2022-11-21T12:55:09.432Z,3.20
2022-11-21T12:57:46.014Z,3.20
2022-11-21T13:00:22.651Z,3.20
2022-11-21T13:02:52.131Z,4.10
2022-11-21T13:05:24.815Z,3.10
2022-11-21T13:08:02.203Z,3.10
2022-11-21T13:10:28.949Z,3.10
2022-11-21T13:13:18.187Z,3.10
2022-11-21T13:15:55.407Z,3.10
2022-11-21T13:18:28.716Z,3.10
2022-11-21T13:20:55.595Z,3.00
2022-11-21T13:23:35.470Z,3.00
2022-11-21T13:26:02.273Z,3.00
2022-11-21T13:28:33.551Z,3.00
2022-11-21T13:31:03.416Z,3.00
2022-11-21T13:34:24.691Z,3.00
2022-11-21T13:37:06.263Z,3.10
2022-11-21T13:39:34.196Z,3.90
2022-11-21T13:42:24.409Z,3.00
2022-11-21T13:44:53.712Z,3.00
2022-11-21T13:47:26.722Z,3.00
2022-11-21T13:50:31.439Z,3.10
2022-11-21T13:53:24.138Z,3.00
2022-11-21T13:55:58.011Z,2.90
2022-11-21T13:58:43.568Z,2.90
2022-11-21T14:01:34.304Z,2.90
2022-11-21T14:08:38.403Z,2.50
2022-11-21T14:11:25.349Z,1.80
2022-11-21T14:13:52.163Z,2.40
2022-11-21T14:16:48.707Z,2.80
2022-11-21T14:19:25.126Z,3.40
2022-11-21T14:21:53.160Z,2.80
2022-11-21T14:24:20.090Z,2.60
2022-11-21T14:26:48.339Z,4.40
2022-11-21T14:29:35.383Z,2.80
2022-11-21T14:32:02.142Z,2.80
2022-11-21T14:34:30.878Z,2.20
2022-11-21T14:37:02.832Z,2.80
2022-11-21T14:39:38.989Z,2.80
2022-11-21T14:42:18.065Z,3.90
2022-11-21T14:44:48.128Z,2.80
2022-11-21T14:47:21.528Z,4.30
2022-11-21T14:50:07.447Z,2.80
2022-11-21T14:52:40.727Z,2.80
2022-11-21T14:55:58.300Z,4.00
2022-11-21T14:58:30.827Z,2.80
2022-11-21T15:01:33.449Z,1.40
2022-11-21T15:04:27.013Z,4.10
2022-11-21T15:07:04.025Z,3.60
2022-11-21T15:12:31.883Z,3.80
2022-11-21T15:15:07.912Z,2.30
2022-11-21T15:17:35.139Z,2.40
2022-11-21T15:20:11.260Z,3.40
2022-11-21T15:22:39.273Z,2.30
2022-11-21T15:25:22.864Z,2.10
2022-11-21T15:28:04.822Z,2.30
2022-11-21T15:30:32.467Z,2.20
2022-11-21T15:33:11.621Z,3.40
2022-11-21T15:35:38.489Z,2.20
2022-11-21T15:38:20.380Z,3.30
2022-11-21T15:41:09.612Z,2.20
2022-11-21T15:43:54.316Z,2.20
2022-11-21T15:46:24.954Z,2.10
2022-11-21T15:48:54.853Z,3.00
2022-11-21T15:51:51.486Z,2.60
2022-11-21T15:54:25.323Z,3.50
2022-11-21T15:56:54.186Z,2.10
2022-11-21T15:59:23.460Z,2.10
2022-11-21T16:01:50.334Z,2.10
2022-11-21T16:04:22.363Z,3.40
2022-11-21T16:06:54.578Z,3.50
2022-11-21T16:09:21.356Z,1.60
2022-11-21T16:11:48.092Z,2.00
2022-11-21T16:14:15.889Z,3.30
2022-11-21T16:16:43.785Z,2.00
2022-11-21T16:19:11.552Z,2.00
2022-11-21T16:21:38.548Z,2.00
2022-11-21T16:24:05.435Z,3.20
2022-11-21T16:26:33.473Z,2.00
2022-11-21T16:29:00.759Z,0.80
2022-11-21T16:31:28.827Z,1.80
2022-11-21T16:33:55.730Z,1.90
2022-11-21T16:36:23.135Z,1.90
2022-11-21T16:38:49.969Z,1.90
2022-11-21T16:41:18.288Z,1.90
2022-11-21T16:43:47.262Z,2.60
2022-11-21T16:46:14.237Z,1.90
2022-11-21T16:48:41.590Z,1.90
2022-11-21T16:51:16.368Z,2.40
2022-11-21T16:53:48.070Z,3.60
2022-11-21T16:56:15.492Z,1.60
2022-11-21T16:58:42.386Z,3.20
2022-11-21T17:01:12.808Z,1.80
2022-11-21T17:03:40.176Z,1.80
2022-11-21T17:06:07.052Z,3.40
2022-11-21T17:08:35.113Z,3.50
2022-11-21T17:11:23.628Z,3.30
2022-11-21T17:13:50.992Z,1.90
2022-11-21T17:16:21.052Z,3.60
2022-11-21T17:18:48.018Z,3.20
2022-11-21T17:21:18.425Z,1.80
2022-11-21T17:23:45.618Z,2.70
2022-11-21T17:26:14.708Z,1.90
2022-11-21T17:28:45.856Z,2.00
2022-11-21T17:31:14.733Z,2.90
2022-11-21T17:33:41.948Z,3.80
2022-11-21T17:36:11.974Z,3.10
2022-11-21T17:38:39.981Z,3.00
2022-11-21T17:41:07.739Z,1.90
2022-11-21T17:43:37.713Z,2.30
2022-11-21T17:46:09.641Z,1.80
2022-11-21T17:48:53.189Z,4.00
2022-11-21T17:51:35.529Z,0.90
2022-11-21T17:54:02.441Z,2.20
2022-11-21T17:56:30.908Z,3.60
2022-11-21T18:03:28.699Z,3.70
2022-11-21T18:09:16.147Z,2.30
2022-11-21T18:15:06.624Z,3.40
2022-11-21T18:17:33.426Z,2.40
2022-11-21T18:20:00.446Z,3.80
2022-11-21T18:22:29.914Z,2.50
2022-11-21T18:25:08.738Z,2.10
2022-11-21T18:27:38.128Z,3.30
2022-11-21T18:30:05.594Z,1.90
2022-11-21T18:32:35.804Z,2.60
2022-11-21T18:35:43.053Z,2.80
2022-11-21T18:38:32.748Z,2.70
2022-11-21T18:41:06.255Z,3.00
2022-11-21T18:43:33.583Z,3.80
2022-11-21T18:46:12.482Z,3.70
2022-11-21T18:49:01.585Z,3.90
2022-11-21T18:51:34.752Z,4.00
2022-11-21T18:54:13.962Z,4.20
2022-11-21T19:00:30.437Z,3.40
2022-11-21T19:02:58.764Z,4.00
2022-11-21T19:05:28.372Z,3.90
2022-11-21T19:08:14.630Z,2.80
2022-11-21T19:10:43.492Z,3.90
2022-11-21T19:16:13.070Z,4.20
2022-11-21T19:18:41.793Z,3.70
2022-11-21T19:21:15.220Z,4.60
2022-11-21T19:23:44.326Z,2.90
2022-11-21T19:26:18.342Z,3.90
2022-11-21T19:28:46.098Z,4.60
2022-11-21T19:31:23.715Z,2.80
2022-11-21T19:33:50.675Z,4.10
2022-11-21T19:36:19.317Z,4.20
2022-11-21T19:38:50.663Z,4.20
2022-11-21T19:41:22.709Z,4.60
2022-11-21T19:43:50.895Z,4.00
2022-11-21T19:46:24.800Z,3.40
2022-11-21T19:48:55.685Z,3.90
2022-11-21T19:51:25.204Z,4.10
2022-11-21T19:53:52.076Z,4.80
2022-11-21T19:56:20.258Z,3.90
2022-11-21T19:58:47.340Z,4.60
2022-11-21T20:01:20.274Z,4.40
2022-11-21T20:03:52.428Z,3.30
2022-11-21T20:06:31.191Z,3.00
2022-11-21T20:09:01.526Z,2.90
2022-11-21T20:11:29.302Z,4.70
2022-11-21T20:14:04.826Z,3.90
2022-11-21T20:16:37.534Z,3.50
2022-11-21T20:19:12.039Z,2.90
2022-11-21T20:21:39.117Z,4.40
2022-11-21T20:24:19.681Z,3.90
2022-11-21T20:26:46.739Z,3.00
2022-11-21T20:29:33.225Z,2.90
2022-11-21T20:32:29.928Z,3.90
2022-11-21T20:38:24.354Z,3.00
2022-11-21T20:40:52.612Z,3.00
2022-11-21T20:43:19.562Z,2.90
2022-11-21T20:46:08.704Z,3.40
2022-11-21T20:48:49.878Z,4.70
2022-11-21T20:54:20.791Z,3.70
2022-11-21T20:56:51.824Z,4.60
2022-11-21T21:02:33.433Z,4.40
2022-11-21T21:05:00.457Z,4.10
2022-11-21T21:07:27.311Z,4.30
2022-11-21T21:09:55.870Z,4.40
2022-11-21T21:12:24.218Z,2.70
2022-11-21T21:14:51.071Z,3.60
2022-11-21T21:17:17.793Z,4.20
2022-11-21T21:19:45.053Z,2.50
2022-11-21T21:22:12.028Z,3.00
2022-11-21T21:24:39.162Z,4.40
2022-11-21T21:27:05.975Z,4.10
2022-11-21T22:03:05.897Z,3.00
2022-11-21T22:23:00.140Z,4.00
2022-11-21T22:25:32.760Z,2.90
2022-11-21T22:35:31.307Z,4.40
2022-11-21T22:42:07.172Z,4.00
2022-11-21T22:49:06.967Z,4.80
2022-11-21T22:50:52.160Z,4.60
2022-11-21T22:53:25.529Z,4.00
2022-11-21T23:14:07.066Z,3.80
2022-11-21T23:53:08.843Z,4.30
